• Join FlightAware (Why Join?)
  • Login
  • US Flag 
Rudolph Flight #1: Arrived! 
03:03AM EST


 

Airport Tracker/Info


-or-


 

Live Flight TrackerFlight Track Log ✈ SWA3675 ✈ 02-May-2013 ✈ KBWI - KORF

Flight Track Log - Related Links

Times and Time Zones

All times are in EDT time to prevent confusion due to time zone crossing. See the SWA3675 flight status page for this flight to view local times or setup timezone preferences in your user account.

Time Position Orientation Groundspeed Altitude Reporting Facility
EDT Latitude Longitude Course Direction KTS MPH feet Rate Location/Type
07:55PM 39.1500 -76.6500 153° Southeast 163 188 1,600  Level Potomac TRACON
07:56PM 39.1000 -76.6167 153° Southeast 226 260 3,600 2,760 Climbing Potomac TRACON
07:57PM 39.0500 -76.5667 142° Southeast 263 303 7,200 3,840 Climbing Potomac TRACON
07:58PM 38.9833 -76.5000 142° Southeast 287 330 11,300 3,360 Climbing Potomac TRACON
07:59PM 38.9167 -76.4500 150° Southeast 309 356 14,000 900 Climbing Potomac TRACON
08:01PM 38.7661 -76.5075 197° South 328 377 14,000  Level Washington Center
08:02PM 38.6903 -76.5892 220° Southwest 340 391 14,000  Level Washington Center
08:03PM 38.6125 -76.6703 219° Southwest 363 418 14,000  Level Washington Center
08:04PM 38.5264 -76.7250 206° Southwest 369 425 14,000  Level Washington Center
08:05PM 38.4267 -76.7128 175° South 341 392 14,000  Level Washington Center
08:06PM 38.3267 -76.6981 173° South 348 400 14,000  Level Washington Center
08:07PM 38.2183 -76.6806 173° South 354 407 14,000  Level Washington Center
08:08PM 38.1206 -76.6661 173° South 354 407 14,000  Level Washington Center
08:09PM 38.0203 -76.6697 182° South 360 414 14,000  Level Washington Center
08:10PM 37.9200 -76.6764 183° South 365 420 14,000  Level Washington Center
08:10PM 37.8742 -76.6861 190° South 366 421 14,000  Level Washington Center
08:11PM 37.8306 -76.6592 154° Southeast 361 415 14,000  Level Washington Center
08:12PM 37.7625 -76.5689 134° Southeast 346 398 14,000 -540 Level Washington Center
08:13PM 37.6925 -76.4708 132° Southeast 336 387 12,900 -1,500 Descending Washington Center
08:14PM 37.6200 -76.3731 133° Southeast 333 383 10,600 -1,440 Descending Washington Center
08:15PM 37.5642 -76.2914 131° Southeast 305 351 9,800 -960 Descending Washington Center
08:16PM 37.5186 -76.2256 131° Southeast 305 351 8,900 -1,140 Descending Washington Center
08:17PM 37.4394 -76.2064 169° South 276 318 7,800 -960 Descending Washington Center
08:18PM 37.3728 -76.1981 174° South 288 331 7,100 -420 Descending Washington Center
08:19PM 37.2853 -76.1817 172° South 281 323 7,100  Level Washington Center
08:20PM 37.2081 -76.1681 172° South 284 327 7,100 -480 Level Washington Center
08:21PM 37.1142 -76.1753 184° South 291 335 6,100 -480 Descending Washington Center
08:22PM 37.0475 -76.2033 199° South 282 325 6,100 -660 Level Washington Center
08:23PM 36.9742 -76.2367 200° South 286 329 4,900 -1,320 Descending Washington Center
08:24PM 36.9050 -76.3011 217° Southwest 279 321 3,400 -1,380 Descending Washington Center